sensor_id;sensor_type;location;lat;lon;timestamp;pressure;altitude;pressure_sealevel;temperature;humidity
5146;BME280;2591;48.144;15.152;2023-08-12T00:00:58;75658.25;;;-144.65;100.00
5146;BME280;2591;48.144;15.152;2023-08-12T00:03:48;75637.88;;;-144.65;100.00
5146;BME280;2591;48.144;15.152;2023-08-12T00:06:35;75641.94;;;-144.65;100.00
5146;BME280;2591;48.144;15.152;2023-08-12T00:09:23;75641.94;;;-144.65;100.00
5146;BME280;2591;48.144;15.152;2023-08-12T00:12:10;75666.41;;;-144.65;100.00
5146;BME280;2591;48.144;15.152;2023-08-12T00:14:56;75666.41;;;-144.65;100.00
5146;BME280;2591;48.144;15.152;2023-08-12T00:17:42;75650.09;;;-144.65;100.00
5146;BME280;2591;48.144;15.152;2023-08-12T00:20:31;75662.34;;;-144.65;100.00
5146;BME280;2591;48.144;15.152;2023-08-12T00:23:17;75670.50;;;-144.65;100.00
5146;BME280;2591;48.144;15.152;2023-08-12T00:26:03;75670.50;;;-144.65;100.00
5146;BME280;2591;48.144;15.152;2023-08-12T00:28:50;75674.56;;;-144.65;100.00
5146;BME280;2591;48.144;15.152;2023-08-12T00:31:36;75674.56;;;-144.65;100.00
5146;BME280;2591;48.144;15.152;2023-08-12T00:34:23;75674.56;;;-144.65;100.00
5146;BME280;2591;48.144;15.152;2023-08-12T00:37:10;75690.88;;;-144.65;100.00
5146;BME280;2591;48.144;15.152;2023-08-12T00:39:57;75678.63;;;-144.65;100.00
5146;BME280;2591;48.144;15.152;2023-08-12T00:42:44;75666.41;;;-144.65;100.00
5146;BME280;2591;48.144;15.152;2023-08-12T00:45:31;75660.28;;;-144.65;100.00
5146;BME280;2591;48.144;15.152;2023-08-12T00:48:19;75658.25;;;-144.65;100.00
5146;BME280;2591;48.144;15.152;2023-08-12T00:51:05;75674.56;;;-144.65;100.00
5146;BME280;2591;48.144;15.152;2023-08-12T00:53:52;75682.72;;;-144.65;100.00
5146;BME280;2591;48.144;15.152;2023-08-12T00:56:39;75674.56;;;-144.65;100.00
5146;BME280;2591;48.144;15.152;2023-08-12T00:59:26;75629.72;;;-144.65;100.00
5146;BME280;2591;48.144;15.152;2023-08-12T01:02:12;75650.09;;;-144.65;100.00
5146;BME280;2591;48.144;15.152;2023-08-12T01:04:59;75670.50;;;-144.65;100.00
5146;BME280;2591;48.144;15.152;2023-08-12T01:07:45;75662.34;;;-144.65;100.00
5146;BME280;2591;48.144;15.152;2023-08-12T01:10:37;75674.56;;;-144.65;100.00
5146;BME280;2591;48.144;15.152;2023-08-12T01:13:29;75674.56;;;-144.65;100.00
5146;BME280;2591;48.144;15.152;2023-08-12T01:16:17;75682.72;;;-144.65;100.00
5146;BME280;2591;48.144;15.152;2023-08-12T01:19:10;75678.63;;;-144.65;100.00
5146;BME280;2591;48.144;15.152;2023-08-12T01:22:00;75690.88;;;-144.65;100.00
5146;BME280;2591;48.144;15.152;2023-08-12T01:24:48;75705.16;;;-144.65;100.00
5146;BME280;2591;48.144;15.152;2023-08-12T01:27:35;75711.25;;;-144.65;100.00
5146;BME280;2591;48.144;15.152;2023-08-12T01:30:22;75707.19;;;-144.65;100.00
5146;BME280;2591;48.144;15.152;2023-08-12T01:33:12;75688.84;;;-144.65;100.00
5146;BME280;2591;48.144;15.152;2023-08-12T01:36:07;75678.63;;;-144.65;100.00
5146;BME280;2591;48.144;15.152;2023-08-12T01:38:56;75688.84;;;-144.65;100.00
5146;BME280;2591;48.144;15.152;2023-08-12T01:41:50;75701.06;;;-144.65;100.00
5146;BME280;2591;48.144;15.152;2023-08-12T01:44:37;75699.03;;;-144.65;100.00
5146;BME280;2591;48.144;15.152;2023-08-12T01:47:24;75686.78;;;-144.65;100.00
5146;BME280;2591;48.144;15.152;2023-08-12T01:50:12;75686.78;;;-144.65;100.00
5146;BME280;2591;48.144;15.152;2023-08-12T01:52:59;75678.63;;;-144.65;100.00
5146;BME280;2591;48.144;15.152;2023-08-12T01:55:45;75690.88;;;-144.65;100.00
5146;BME280;2591;48.144;15.152;2023-08-12T01:58:32;75688.84;;;-144.65;100.00
5146;BME280;2591;48.144;15.152;2023-08-12T02:01:19;75688.84;;;-144.65;100.00
5146;BME280;2591;48.144;15.152;2023-08-12T02:04:05;75684.75;;;-144.65;100.00
5146;BME280;2591;48.144;15.152;2023-08-12T02:06:52;75682.72;;;-144.65;100.00
5146;BME280;2591;48.144;15.152;2023-08-12T02:09:38;75678.63;;;-144.65;100.00
5146;BME280;2591;48.144;15.152;2023-08-12T02:12:25;75678.63;;;-144.65;100.00
5146;BME280;2591;48.144;15.152;2023-08-12T02:15:13;75682.72;;;-144.65;100.00
5146;BME280;2591;48.144;15.152;2023-08-12T02:17:59;75680.69;;;-144.65;100.00
5146;BME280;2591;48.144;15.152;2023-08-12T02:20:46;75682.72;;;-144.65;100.00
5146;BME280;2591;48.144;15.152;2023-08-12T02:23:33;75650.09;;;-144.65;100.00
5146;BME280;2591;48.144;15.152;2023-08-12T02:26:19;75686.78;;;-144.65;100.00
5146;BME280;2591;48.144;15.152;2023-08-12T02:29:06;75711.25;;;-144.65;100.00
5146;BME280;2591;48.144;15.152;2023-08-12T02:31:53;75725.53;;;-144.65;100.00
5146;BME280;2591;48.144;15.152;2023-08-12T02:34:40;75735.72;;;-144.65;100.00
5146;BME280;2591;48.144;15.152;2023-08-12T02:37:26;75745.91;;;-144.65;100.00
5146;BME280;2591;48.144;15.152;2023-08-12T02:40:13;75760.19;;;-144.65;100.00
5146;BME280;2591;48.144;15.152;2023-08-12T02:42:59;75780.56;;;-144.65;100.00
5146;BME280;2591;48.144;15.152;2023-08-12T02:45:46;75784.66;;;-144.65;100.00
5146;BME280;2591;48.144;15.152;2023-08-12T02:48:34;75776.50;;;-144.65;100.00
5146;BME280;2591;48.144;15.152;2023-08-12T02:51:21;75796.88;;;-144.65;100.00
5146;BME280;2591;48.144;15.152;2023-08-12T02:54:08;75813.19;;;-144.65;100.00
5146;BME280;2591;48.144;15.152;2023-08-12T02:56:54;75829.50;;;-144.65;100.00
5146;BME280;2591;48.144;15.152;2023-08-12T02:59:40;75837.66;;;-144.65;100.00
5146;BME280;2591;48.144;15.152;2023-08-12T03:02:27;75833.56;;;-144.65;100.00
5146;BME280;2591;48.144;15.152;2023-08-12T03:05:15;75829.50;;;-144.65;100.00
5146;BME280;2591;48.144;15.152;2023-08-12T03:08:02;75825.41;;;-144.65;100.00
5146;BME280;2591;48.144;15.152;2023-08-12T03:10:49;75817.25;;;-144.65;100.00
5146;BME280;2591;48.144;15.152;2023-08-12T03:13:35;75809.13;;;-144.65;100.00
5146;BME280;2591;48.144;15.152;2023-08-12T03:16:22;75798.91;;;-144.65;100.00
5146;BME280;2591;48.144;15.152;2023-08-12T03:19:08;75805.03;;;-144.65;100.00
5146;BME280;2591;48.144;15.152;2023-08-12T03:21:56;75796.88;;;-144.65;100.00
5146;BME280;2591;48.144;15.152;2023-08-12T03:24:42;75798.91;;;-144.65;100.00
5146;BME280;2591;48.144;15.152;2023-08-12T03:27:28;75825.41;;;-144.65;100.00
5146;BME280;2591;48.144;15.152;2023-08-12T03:30:15;75829.50;;;-144.65;100.00
5146;BME280;2591;48.144;15.152;2023-08-12T03:33:02;75821.34;;;-144.65;100.00
5146;BME280;2591;48.144;15.152;2023-08-12T03:35:49;75813.19;;;-144.65;100.00
5146;BME280;2591;48.144;15.152;2023-08-12T03:38:36;75825.41;;;-144.65;100.00
5146;BME280;2591;48.144;15.152;2023-08-12T03:41:23;75858.03;;;-144.65;100.00
5146;BME280;2591;48.144;15.152;2023-08-12T03:44:09;75866.19;;;-144.65;100.00
5146;BME280;2591;48.144;15.152;2023-08-12T03:46:56;75870.28;;;-144.65;100.00
5146;BME280;2591;48.144;15.152;2023-08-12T03:49:43;75880.47;;;-144.65;100.00
5146;BME280;2591;48.144;15.152;2023-08-12T03:52:29;75890.66;;;-144.65;100.00
5146;BME280;2591;48.144;15.152;2023-08-12T03:55:17;75894.75;;;-144.65;100.00
5146;BME280;2591;48.144;15.152;2023-08-12T03:58:03;75890.66;;;-144.65;100.00
5146;BME280;2591;48.144;15.152;2023-08-12T04:00:50;75894.75;;;-144.65;100.00
5146;BME280;2591;48.144;15.152;2023-08-12T04:03:36;75894.75;;;-144.65;100.00
5146;BME280;2591;48.144;15.152;2023-08-12T04:06:23;75900.84;;;-144.65;100.00
5146;BME280;2591;48.144;15.152;2023-08-12T04:09:09;75898.81;;;-144.65;100.00
5146;BME280;2591;48.144;15.152;2023-08-12T04:11:56;75898.81;;;-144.65;100.00
5146;BME280;2591;48.144;15.152;2023-08-12T04:14:43;75890.66;;;-144.65;100.00
5146;BME280;2591;48.144;15.152;2023-08-12T04:17:29;75898.81;;;-144.65;100.00
5146;BME280;2591;48.144;15.152;2023-08-12T04:20:16;75902.88;;;-144.65;100.00
5146;BME280;2591;48.144;15.152;2023-08-12T04:23:03;75894.75;;;-144.65;100.00
5146;BME280;2591;48.144;15.152;2023-08-12T04:25:49;75898.81;;;-144.65;100.00
5146;BME280;2591;48.144;15.152;2023-08-12T04:28:38;75898.81;;;-144.65;100.00
5146;BME280;2591;48.144;15.152;2023-08-12T04:31:24;75898.81;;;-144.65;100.00
5146;BME280;2591;48.144;15.152;2023-08-12T04:34:10;75892.69;;;-144.65;100.00
5146;BME280;2591;48.144;15.152;2023-08-12T04:36:57;75884.53;;;-144.65;100.00
5146;BME280;2591;48.144;15.152;2023-08-12T04:39:43;75866.19;;;-144.65;100.00
5146;BME280;2591;48.144;15.152;2023-08-12T04:42:30;75858.03;;;-144.65;100.00
5146;BME280;2591;48.144;15.152;2023-08-12T04:45:18;75851.91;;;-144.65;100.00
5146;BME280;2591;48.144;15.152;2023-08-12T04:48:05;75845.81;;;-144.65;100.00
5146;BME280;2591;48.144;15.152;2023-08-12T04:50:53;75837.66;;;-144.65;100.00
5146;BME280;2591;48.144;15.152;2023-08-12T04:53:45;75835.63;;;-144.65;100.00
5146;BME280;2591;48.144;15.152;2023-08-12T04:56:31;75829.50;;;-144.65;100.00
5146;BME280;2591;48.144;15.152;2023-08-12T04:59:17;75815.22;;;-144.65;100.00
5146;BME280;2591;48.144;15.152;2023-08-12T05:02:05;75809.13;;;-144.65;100.00
5146;BME280;2591;48.144;15.152;2023-08-12T05:04:52;75796.88;;;-144.65;100.00
5146;BME280;2591;48.144;15.152;2023-08-12T05:07:39;75786.69;;;-144.65;100.00
5146;BME280;2591;48.144;15.152;2023-08-12T05:10:25;75768.34;;;-144.65;100.00
5146;BME280;2591;48.144;15.152;2023-08-12T05:13:11;75756.09;;;-144.65;100.00
5146;BME280;2591;48.144;15.152;2023-08-12T05:15:58;75752.03;;;-144.65;100.00
5146;BME280;2591;48.144;15.152;2023-08-12T05:18:46;75743.88;;;-144.65;100.00
5146;BME280;2591;48.144;15.152;2023-08-12T05:21:32;75737.75;;;-144.65;100.00
5146;BME280;2591;48.144;15.152;2023-08-12T05:24:18;75725.53;;;-144.65;100.00
5146;BME280;2591;48.144;15.152;2023-08-12T05:27:04;75711.25;;;-144.65;100.00
5146;BME280;2591;48.144;15.152;2023-08-12T05:29:51;75694.94;;;-144.65;100.00
5146;BME280;2591;48.144;15.152;2023-08-12T05:32:37;75674.56;;;-144.65;100.00
5146;BME280;2591;48.144;15.152;2023-08-12T05:35:25;75670.50;;;-144.65;100.00
5146;BME280;2591;48.144;15.152;2023-08-12T05:38:12;75654.19;;;-144.65;100.00
5146;BME280;2591;48.144;15.152;2023-08-12T05:40:58;75654.19;;;-144.65;100.00
5146;BME280;2591;48.144;15.152;2023-08-12T05:43:45;75652.13;;;-144.65;100.00
5146;BME280;2591;48.144;15.152;2023-08-12T05:46:31;75631.75;;;-144.65;100.00
5146;BME280;2591;48.144;15.152;2023-08-12T05:49:17;75623.59;;;-144.65;100.00
5146;BME280;2591;48.144;15.152;2023-08-12T05:52:05;75625.63;;;-144.65;100.00
5146;BME280;2591;48.144;15.152;2023-08-12T05:54:52;75621.56;;;-144.65;100.00
5146;BME280;2591;48.144;15.152;2023-08-12T05:57:38;75613.41;;;-144.65;100.00
5146;BME280;2591;48.144;15.152;2023-08-12T06:00:24;75605.25;;;-144.65;100.00
5146;BME280;2591;48.144;15.152;2023-08-12T06:03:10;75597.09;;;-144.65;100.00
5146;BME280;2591;48.144;15.152;2023-08-12T06:05:57;75588.94;;;-144.65;100.00
5146;BME280;2591;48.144;15.152;2023-08-12T06:08:45;75574.69;;;-144.65;100.00
5146;BME280;2591;48.144;15.152;2023-08-12T06:11:31;75548.19;;;-144.65;100.00
5146;BME280;2591;48.144;15.152;2023-08-12T06:14:18;75542.06;;;-144.65;100.00
5146;BME280;2591;48.144;15.152;2023-08-12T06:17:04;75523.72;;;-144.65;100.00
5146;BME280;2591;48.144;15.152;2023-08-12T06:19:51;75527.78;;;-144.65;100.00
5146;BME280;2591;48.144;15.152;2023-08-12T06:22:37;75511.47;;;-144.65;100.00
5146;BME280;2591;48.144;15.152;2023-08-12T06:25:25;75503.34;;;-144.65;100.00
5146;BME280;2591;48.144;15.152;2023-08-12T06:28:11;75499.25;;;-144.65;100.00
5146;BME280;2591;48.144;15.152;2023-08-12T06:30:58;75487.03;;;-144.65;100.00
5146;BME280;2591;48.144;15.152;2023-08-12T06:33:44;75474.78;;;-144.65;100.00
5146;BME280;2591;48.144;15.152;2023-08-12T06:36:30;75464.59;;;-144.65;100.00
5146;BME280;2591;48.144;15.152;2023-08-12T06:39:17;75446.25;;;-144.65;100.00
5146;BME280;2591;48.144;15.152;2023-08-12T06:42:05;75421.78;;;-144.65;100.00
5146;BME280;2591;48.144;15.152;2023-08-12T06:44:54;75405.50;;;-144.65;100.00
5146;BME280;2591;48.144;15.152;2023-08-12T06:47:41;75381.03;;;-144.65;100.00
5146;BME280;2591;48.144;15.152;2023-08-12T06:50:27;75372.88;;;-144.65;100.00
5146;BME280;2591;48.144;15.152;2023-08-12T06:53:13;75362.69;;;-144.65;100.00
5146;BME280;2591;48.144;15.152;2023-08-12T06:56:00;75344.34;;;-144.65;100.00
5146;BME280;2591;48.144;15.152;2023-08-12T06:58:50;75323.94;;;-144.65;100.00
5146;BME280;2591;48.144;15.152;2023-08-12T07:01:37;75303.56;;;-144.65;100.00
5146;BME280;2591;48.144;15.152;2023-08-12T07:04:23;75299.50;;;-144.65;100.00
5146;BME280;2591;48.144;15.152;2023-08-12T07:07:10;75287.25;;;-144.65;100.00
5146;BME280;2591;48.144;15.152;2023-08-12T07:09:57;75275.03;;;-144.65;100.00
5146;BME280;2591;48.144;15.152;2023-08-12T07:12:44;75262.81;;;-144.65;100.00
5146;BME280;2591;48.144;15.152;2023-08-12T07:15:33;75258.72;;;-144.65;100.00
5146;BME280;2591;48.144;15.152;2023-08-12T07:18:20;75234.28;;;-144.65;100.00
5146;BME280;2591;48.144;15.152;2023-08-12T07:21:08;75201.66;;;-144.65;100.00
5146;BME280;2591;48.144;15.152;2023-08-12T07:23:55;75187.38;;;-144.65;100.00
5146;BME280;2591;48.144;15.152;2023-08-12T07:26:50;75164.97;;;-144.65;100.00
5146;BME280;2591;48.144;15.152;2023-08-12T07:29:37;75140.50;;;-144.65;100.00
5146;BME280;2591;48.144;15.152;2023-08-12T07:32:25;75124.19;;;-144.65;100.00
5146;BME280;2591;48.144;15.152;2023-08-12T07:35:12;75116.06;;;-144.65;100.00
5146;BME280;2591;48.144;15.152;2023-08-12T07:38:00;75103.81;;;-144.65;100.00
5146;BME280;2591;48.144;15.152;2023-08-12T07:40:48;75087.50;;;-144.65;98.32
5146;BME280;2591;48.144;15.152;2023-08-12T07:43:35;75052.88;;;-144.65;98.97
5146;BME280;2591;48.144;15.152;2023-08-12T07:46:22;75044.72;;;-144.65;95.27
5146;BME280;2591;48.144;15.152;2023-08-12T07:49:10;75038.59;;;-144.65;98.77
5146;BME280;2591;48.144;15.152;2023-08-12T07:51:57;74993.75;;;-144.65;97.19
5146;BME280;2591;48.144;15.152;2023-08-12T07:54:44;74973.38;;;-144.65;91.51
5146;BME280;2591;48.144;15.152;2023-08-12T07:57:30;74946.88;;;-144.65;89.56
5146;BME280;2591;48.144;15.152;2023-08-12T08:00:18;74920.38;;;-144.65;90.47
5146;BME280;2591;48.144;15.152;2023-08-12T08:03:05;74912.22;;;-144.65;90.53
5146;BME280;2591;48.144;15.152;2023-08-12T08:05:53;74897.97;;;-144.65;90.18
5146;BME280;2591;48.144;15.152;2023-08-12T08:08:39;74895.94;;;-144.65;87.03
5146;BME280;2591;48.144;15.152;2023-08-12T08:11:26;74891.84;;;-144.65;87.91
5146;BME280;2591;48.144;15.152;2023-08-12T08:14:12;74867.41;;;-144.65;86.07
5146;BME280;2591;48.144;15.152;2023-08-12T08:16:59;74822.56;;;-144.65;86.73
5146;BME280;2591;48.144;15.152;2023-08-12T08:19:46;74787.91;;;-144.65;84.79
5146;BME280;2591;48.144;15.152;2023-08-12T08:22:33;74765.50;;;-144.65;80.28
5146;BME280;2591;48.144;15.152;2023-08-12T08:25:20;74769.56;;;-144.65;81.09
5146;BME280;2591;48.144;15.152;2023-08-12T08:28:06;74753.28;;;-144.65;84.73
5146;BME280;2591;48.144;15.152;2023-08-12T08:30:53;74736.97;;;-144.65;84.46
5146;BME280;2591;48.144;15.152;2023-08-12T08:33:39;74720.66;;;-144.65;80.66
5146;BME280;2591;48.144;15.152;2023-08-12T08:36:29;74708.44;;;-144.65;79.24
5146;BME280;2591;48.144;15.152;2023-08-12T08:39:17;74690.09;;;-144.65;76.19
5146;BME280;2591;48.144;15.152;2023-08-12T08:42:05;74692.13;;;-144.65;76.04
5146;BME280;2591;48.144;15.152;2023-08-12T08:44:52;74679.91;;;-144.65;78.86
5146;BME280;2591;48.144;15.152;2023-08-12T08:47:41;74661.56;;;-144.65;75.89
5146;BME280;2591;48.144;15.152;2023-08-12T08:50:29;74659.53;;;-144.65;78.74
5146;BME280;2591;48.144;15.152;2023-08-12T08:53:17;74639.13;;;-144.65;79.93
5146;BME280;2591;48.144;15.152;2023-08-12T08:56:06;74606.53;;;-144.65;76.89
5146;BME280;2591;48.144;15.152;2023-08-12T08:58:59;74584.13;;;-144.65;75.35
5146;BME280;2591;48.144;15.152;2023-08-12T09:01:46;74555.59;;;-144.65;72.03
5146;BME280;2591;48.144;15.152;2023-08-12T09:04:33;74553.56;;;-144.65;74.42
5146;BME280;2591;48.144;15.152;2023-08-12T09:07:20;74529.09;;;-144.65;74.58
5146;BME280;2591;48.144;15.152;2023-08-12T09:10:07;74488.34;;;-144.65;70.95
5146;BME280;2591;48.144;15.152;2023-08-12T09:13:01;74455.72;;;-144.65;72.24
5146;BME280;2591;48.144;15.152;2023-08-12T09:15:47;74425.16;;;-144.65;67.57
5146;BME280;2591;48.144;15.152;2023-08-12T09:18:34;74406.81;;;-144.65;68.45
5146;BME280;2591;48.144;15.152;2023-08-12T09:21:21;74404.78;;;-144.65;68.36
5146;BME280;2591;48.144;15.152;2023-08-12T09:24:07;74374.22;;;-144.65;68.59
5146;BME280;2591;48.144;15.152;2023-08-12T09:26:54;74357.91;;;-144.65;67.96
5146;BME280;2591;48.144;15.152;2023-08-12T09:29:43;74333.47;;;-144.65;67.47
5146;BME280;2591;48.144;15.152;2023-08-12T09:32:30;74319.19;;;-144.65;67.46
5146;BME280;2591;48.144;15.152;2023-08-12T09:35:20;74313.09;;;-144.65;65.73
5146;BME280;2591;48.144;15.152;2023-08-12T09:38:07;74325.31;;;-144.65;66.71
5146;BME280;2591;48.144;15.152;2023-08-12T09:40:55;74313.09;;;-144.65;66.12
5146;BME280;2591;48.144;15.152;2023-08-12T09:43:45;74280.50;;;-144.65;65.78
5146;BME280;2591;48.144;15.152;2023-08-12T09:46:37;74247.88;;;-144.65;65.75
5146;BME280;2591;48.144;15.152;2023-08-12T09:49:24;74217.31;;;-144.65;64.42
5146;BME280;2591;48.144;15.152;2023-08-12T09:52:11;74207.13;;;-144.65;64.36
5146;BME280;2591;48.144;15.152;2023-08-12T09:55:00;74178.59;;;-144.65;62.72
5146;BME280;2591;48.144;15.152;2023-08-12T09:57:53;74154.16;;;-144.65;62.42
5146;BME280;2591;48.144;15.152;2023-08-12T10:00:40;74141.94;;;-144.65;61.76
5146;BME280;2591;48.144;15.152;2023-08-12T10:03:29;74105.25;;;-144.65;60.63
5146;BME280;2591;48.144;15.152;2023-08-12T10:06:16;74076.72;;;-144.65;59.63
5146;BME280;2591;48.144;15.152;2023-08-12T10:09:05;74072.66;;;-144.65;59.80
5146;BME280;2591;48.144;15.152;2023-08-12T10:11:53;74068.56;;;-144.65;60.44
5146;BME280;2591;48.144;15.152;2023-08-12T10:14:41;74056.34;;;-144.65;60.33
5146;BME280;2591;48.144;15.152;2023-08-12T10:17:28;74015.59;;;-144.65;58.59
5146;BME280;2591;48.144;15.152;2023-08-12T10:20:23;74027.81;;;-144.65;58.43
5146;BME280;2591;48.144;15.152;2023-08-12T10:23:17;74007.44;;;-144.65;58.60
5146;BME280;2591;48.144;15.152;2023-08-12T10:26:05;73989.09;;;-144.65;58.46
5146;BME280;2591;48.144;15.152;2023-08-12T10:28:54;73968.72;;;-144.65;57.97
5146;BME280;2591;48.144;15.152;2023-08-12T10:31:41;73946.31;;;-144.65;56.64
5146;BME280;2591;48.144;15.152;2023-08-12T10:34:30;73942.25;;;-144.65;57.09
5146;BME280;2591;48.144;15.152;2023-08-12T10:37:19;73905.56;;;-144.65;55.91
5146;BME280;2591;48.144;15.152;2023-08-12T10:40:09;73921.88;;;-144.65;56.75
5146;BME280;2591;48.144;15.152;2023-08-12T10:43:05;73907.59;;;-144.65;56.38
5146;BME280;2591;48.144;15.152;2023-08-12T10:45:53;73897.41;;;-144.65;56.47
5146;BME280;2591;48.144;15.152;2023-08-12T10:48:56;73864.81;;;-144.65;55.46
5146;BME280;2591;48.144;15.152;2023-08-12T10:51:47;73860.75;;;-144.65;55.66
5146;BME280;2591;48.144;15.152;2023-08-12T10:54:54;73868.91;;;-144.65;56.12
5146;BME280;2591;48.144;15.152;2023-08-12T10:57:45;73856.66;;;-144.65;56.89
5146;BME280;2591;48.144;15.152;2023-08-12T11:00:31;73830.19;;;-144.65;55.27
5146;BME280;2591;48.144;15.152;2023-08-12T11:03:18;73820.00;;;-144.65;55.67
5146;BME280;2591;48.144;15.152;2023-08-12T11:06:05;73803.69;;;-144.65;54.32
5146;BME280;2591;48.144;15.152;2023-08-12T11:08:52;73803.69;;;-144.65;55.22
5146;BME280;2591;48.144;15.152;2023-08-12T11:11:41;73779.25;;;-144.65;54.27
5146;BME280;2591;48.144;15.152;2023-08-12T11:14:28;73793.50;;;-144.65;55.37
5146;BME280;2591;48.144;15.152;2023-08-12T11:17:15;73771.09;;;-144.65;54.83
5146;BME280;2591;48.144;15.152;2023-08-12T11:20:03;73752.75;;;-144.65;54.28
5146;BME280;2591;48.144;15.152;2023-08-12T11:22:51;73724.25;;;-144.65;53.77
5146;BME280;2591;48.144;15.152;2023-08-12T11:25:39;73726.28;;;-144.65;53.84
5146;BME280;2591;48.144;15.152;2023-08-12T11:28:28;73709.97;;;-144.65;53.01
5146;BME280;2591;48.144;15.152;2023-08-12T11:31:15;73726.28;;;-144.65;53.43
5146;BME280;2591;48.144;15.152;2023-08-12T11:34:02;73722.19;;;-144.65;54.14
5146;BME280;2591;48.144;15.152;2023-08-12T11:36:48;73699.78;;;-144.65;53.49
5146;BME280;2591;48.144;15.152;2023-08-12T11:39:34;73681.44;;;-144.65;53.03
5146;BME280;2591;48.144;15.152;2023-08-12T11:42:21;73677.38;;;-144.65;53.89
5146;BME280;2591;48.144;15.152;2023-08-12T11:45:09;73657.00;;;-144.65;52.89
5146;BME280;2591;48.144;15.152;2023-08-12T11:47:56;73652.94;;;-144.65;53.44
5146;BME280;2591;48.144;15.152;2023-08-12T11:50:43;73636.63;;;-144.65;52.57
5146;BME280;2591;48.144;15.152;2023-08-12T11:53:29;73640.72;;;-144.65;52.70
5146;BME280;2591;48.144;15.152;2023-08-12T11:56:16;73642.75;;;-144.65;52.46
5146;BME280;2591;48.144;15.152;2023-08-12T11:59:05;73630.53;;;-144.65;52.92
5146;BME280;2591;48.144;15.152;2023-08-12T12:01:54;73634.59;;;-144.65;52.97
5146;BME280;2591;48.144;15.152;2023-08-12T12:04:41;73616.25;;;-144.65;52.47
5146;BME280;2591;48.144;15.152;2023-08-12T12:07:28;73616.25;;;-144.65;53.32
5146;BME280;2591;48.144;15.152;2023-08-12T12:10:18;73581.63;;;-144.65;51.72
5146;BME280;2591;48.144;15.152;2023-08-12T12:13:06;73618.28;;;-144.65;52.94
5146;BME280;2591;48.144;15.152;2023-08-12T12:15:53;73630.53;;;-144.65;51.97
5146;BME280;2591;48.144;15.152;2023-08-12T12:18:41;73612.19;;;-144.65;52.22
5146;BME280;2591;48.144;15.152;2023-08-12T12:21:28;73595.88;;;-144.65;52.32
5146;BME280;2591;48.144;15.152;2023-08-12T12:24:14;73565.31;;;-144.65;50.80
5146;BME280;2591;48.144;15.152;2023-08-12T12:27:00;73591.81;;;-144.65;52.68
5146;BME280;2591;48.144;15.152;2023-08-12T12:29:48;73597.91;;;-144.65;52.92
5146;BME280;2591;48.144;15.152;2023-08-12T12:32:34;73606.06;;;-144.65;52.55
5146;BME280;2591;48.144;15.152;2023-08-12T12:35:21;73581.63;;;-144.65;51.42
5146;BME280;2591;48.144;15.152;2023-08-12T12:38:09;73591.81;;;-144.65;50.63
5146;BME280;2591;48.144;15.152;2023-08-12T12:40:56;73587.72;;;-144.65;52.55
5146;BME280;2591;48.144;15.152;2023-08-12T12:43:42;73559.22;;;-144.65;51.59
5146;BME280;2591;48.144;15.152;2023-08-12T12:46:30;73555.13;;;-144.65;50.66
5146;BME280;2591;48.144;15.152;2023-08-12T12:49:16;73557.16;;;-144.65;50.49
5146;BME280;2591;48.144;15.152;2023-08-12T12:52:04;73542.91;;;-144.65;51.09
5146;BME280;2591;48.144;15.152;2023-08-12T12:54:52;73502.16;;;-144.65;49.38
5146;BME280;2591;48.144;15.152;2023-08-12T12:57:38;73514.41;;;-144.65;49.64
5146;BME280;2591;48.144;15.152;2023-08-12T13:00:25;73483.84;;;-144.65;48.51
5146;BME280;2591;48.144;15.152;2023-08-12T13:03:12;73461.41;;;-144.65;47.77
5146;BME280;2591;48.144;15.152;2023-08-12T13:05:59;73473.66;;;-144.65;47.94
5146;BME280;2591;48.144;15.152;2023-08-12T13:08:48;73469.56;;;-144.65;46.51
5146;BME280;2591;48.144;15.152;2023-08-12T13:11:35;73494.03;;;-144.65;46.37
5146;BME280;2591;48.144;15.152;2023-08-12T13:14:21;73516.44;;;-144.65;46.95
5146;BME280;2591;48.144;15.152;2023-08-12T13:17:08;73536.81;;;-144.65;47.59
5146;BME280;2591;48.144;15.152;2023-08-12T13:19:54;73506.25;;;-144.65;48.67
5146;BME280;2591;48.144;15.152;2023-08-12T13:22:40;73481.78;;;-144.65;48.43
5146;BME280;2591;48.144;15.152;2023-08-12T13:25:31;73504.22;;;-144.65;49.51
5146;BME280;2591;48.144;15.152;2023-08-12T13:28:18;73473.66;;;-144.65;48.41
5146;BME280;2591;48.144;15.152;2023-08-12T13:31:05;73463.47;;;-144.65;46.81
5146;BME280;2591;48.144;15.152;2023-08-12T13:33:53;73489.94;;;-144.65;48.25
5146;BME280;2591;48.144;15.152;2023-08-12T13:36:40;73481.78;;;-144.65;47.90
5146;BME280;2591;48.144;15.152;2023-08-12T13:39:26;73485.88;;;-144.65;47.50
5146;BME280;2591;48.144;15.152;2023-08-12T13:42:14;73498.09;;;-144.65;48.54
5146;BME280;2591;48.144;15.152;2023-08-12T13:45:00;73481.78;;;-144.65;47.35
5146;BME280;2591;48.144;15.152;2023-08-12T13:47:46;73465.50;;;-144.65;46.47
5146;BME280;2591;48.144;15.152;2023-08-12T13:50:33;73479.75;;;-144.65;47.20
5146;BME280;2591;48.144;15.152;2023-08-12T13:53:19;73494.03;;;-144.65;48.02
5146;BME280;2591;48.144;15.152;2023-08-12T13:56:05;73471.59;;;-144.65;46.56
5146;BME280;2591;48.144;15.152;2023-08-12T13:58:54;73514.41;;;-144.65;48.16
5146;BME280;2591;48.144;15.152;2023-08-12T14:01:41;73485.88;;;-144.65;47.30
5146;BME280;2591;48.144;15.152;2023-08-12T14:04:28;73459.38;;;-144.65;46.11
5146;BME280;2591;48.144;15.152;2023-08-12T14:07:14;73485.88;;;-144.65;47.67
5146;BME280;2591;48.144;15.152;2023-08-12T14:10:00;73481.78;;;-144.65;47.47
5146;BME280;2591;48.144;15.152;2023-08-12T14:12:47;73494.03;;;-144.65;48.41
5146;BME280;2591;48.144;15.152;2023-08-12T14:15:38;73485.88;;;-144.65;48.03
5146;BME280;2591;48.144;15.152;2023-08-12T14:18:24;73461.41;;;-144.65;46.94
5146;BME280;2591;48.144;15.152;2023-08-12T14:21:11;73483.84;;;-144.65;48.32
5146;BME280;2591;48.144;15.152;2023-08-12T14:23:57;73485.88;;;-144.65;48.08
5146;BME280;2591;48.144;15.152;2023-08-12T14:26:43;73502.16;;;-144.65;48.29
5146;BME280;2591;48.144;15.152;2023-08-12T14:29:30;73524.56;;;-144.65;48.85